createdAt,value
2023-05-04T00:00:34.486Z,99.90
2023-05-04T00:03:01.303Z,99.90
2023-05-04T00:05:28.076Z,99.90
2023-05-04T00:07:54.786Z,99.90
2023-05-04T00:10:21.498Z,99.90
2023-05-04T00:12:48.447Z,99.90
2023-05-04T00:15:15.205Z,99.90
2023-05-04T00:17:41.942Z,99.90
2023-05-04T00:20:08.675Z,99.90
2023-05-04T00:22:35.391Z,99.90
2023-05-04T00:25:02.184Z,99.90
2023-05-04T00:27:28.963Z,99.90
2023-05-04T00:29:55.661Z,99.90
2023-05-04T00:32:22.542Z,99.90
2023-05-04T00:34:49.259Z,99.90
2023-05-04T00:37:16.074Z,99.90
2023-05-04T00:39:42.738Z,99.90
2023-05-04T00:42:09.479Z,99.90
2023-05-04T00:44:36.231Z,99.90
2023-05-04T00:47:03.452Z,99.90
2023-05-04T00:49:30.184Z,99.90
2023-05-04T00:51:56.920Z,99.90
2023-05-04T00:54:23.587Z,99.90
2023-05-04T00:56:50.534Z,99.90
2023-05-04T00:59:17.235Z,99.90
2023-05-04T01:01:44.181Z,99.90
2023-05-04T01:04:10.970Z,99.90
2023-05-04T01:06:37.923Z,99.90
2023-05-04T01:09:04.669Z,99.90
2023-05-04T01:11:31.441Z,99.90
2023-05-04T01:13:58.126Z,99.90
2023-05-04T01:16:24.903Z,99.90
2023-05-04T01:18:51.666Z,99.90
2023-05-04T01:21:18.369Z,99.90
2023-05-04T01:23:45.096Z,99.90
2023-05-04T01:26:11.842Z,99.90
2023-05-04T01:28:38.569Z,99.90
2023-05-04T01:31:05.393Z,99.90
2023-05-04T01:33:32.180Z,99.90
2023-05-04T01:35:58.910Z,99.90
2023-05-04T01:38:25.591Z,99.90
2023-05-04T01:40:52.314Z,99.90
2023-05-04T01:43:19.033Z,99.90
2023-05-04T01:45:45.762Z,99.90
2023-05-04T01:48:12.614Z,99.90
2023-05-04T01:50:39.332Z,99.90
2023-05-04T01:53:06.028Z,99.90
2023-05-04T01:55:32.772Z,99.90
2023-05-04T01:57:59.438Z,99.90
2023-05-04T02:00:26.151Z,99.90
2023-05-04T02:02:52.921Z,99.90
2023-05-04T02:05:20.142Z,99.90
2023-05-04T02:07:48.480Z,99.90
2023-05-04T02:10:15.395Z,99.90
2023-05-04T02:12:43.061Z,99.90
2023-05-04T02:15:10.058Z,99.90
2023-05-04T02:17:36.920Z,99.90
2023-05-04T02:20:04.693Z,99.90
2023-05-04T02:22:31.829Z,99.90
2023-05-04T02:24:58.551Z,99.90
2023-05-04T02:27:25.833Z,99.90
2023-05-04T02:29:52.535Z,99.90
2023-05-04T02:32:19.288Z,99.90
2023-05-04T02:34:46.037Z,99.90
2023-05-04T02:37:13.065Z,99.90
2023-05-04T02:39:39.804Z,99.90
2023-05-04T02:42:06.538Z,99.90
2023-05-04T02:44:33.320Z,99.90
2023-05-04T02:47:00.171Z,99.90
2023-05-04T02:49:29.749Z,99.90
2023-05-04T02:51:56.453Z,99.90
2023-05-04T02:54:23.182Z,99.90
2023-05-04T02:56:49.892Z,99.90
2023-05-04T02:59:16.688Z,99.90
2023-05-04T03:01:43.418Z,99.90
2023-05-04T03:04:10.420Z,99.90
2023-05-04T03:06:37.155Z,99.90
2023-05-04T03:09:04.634Z,99.90
2023-05-04T03:11:31.388Z,99.90
2023-05-04T03:13:58.306Z,99.90
2023-05-04T03:16:25.076Z,99.90
2023-05-04T03:18:51.830Z,99.90
2023-05-04T03:21:18.555Z,99.90
2023-05-04T03:23:45.552Z,99.90
2023-05-04T03:26:12.244Z,99.90
2023-05-04T03:28:38.998Z,99.90
2023-05-04T03:31:06.080Z,99.90
2023-05-04T03:33:32.823Z,99.90
2023-05-04T03:35:59.593Z,99.90
2023-05-04T03:38:26.340Z,99.90
2023-05-04T03:40:55.084Z,99.90
2023-05-04T03:43:23.191Z,99.90
2023-05-04T03:45:49.925Z,99.90
2023-05-04T03:48:17.674Z,99.90
2023-05-04T03:50:44.345Z,99.90
2023-05-04T03:53:11.143Z,99.90
2023-05-04T03:55:39.140Z,99.90
2023-05-04T03:58:05.877Z,99.90
2023-05-04T04:00:32.754Z,99.90
2023-05-04T04:03:08.637Z,99.90
2023-05-04T04:05:36.649Z,99.90
2023-05-04T04:08:03.932Z,99.90
2023-05-04T04:10:30.932Z,99.90
2023-05-04T04:12:57.674Z,99.90
2023-05-04T04:15:24.498Z,99.90
2023-05-04T04:17:51.207Z,99.90
2023-05-04T04:20:17.965Z,99.90
2023-05-04T04:22:44.646Z,99.90
2023-05-04T04:25:12.255Z,99.90
2023-05-04T04:27:38.983Z,99.90
2023-05-04T04:30:05.952Z,99.90
2023-05-04T04:32:34.120Z,99.90
2023-05-04T04:35:01.132Z,99.90
2023-05-04T04:37:28.242Z,99.90
2023-05-04T04:39:54.937Z,99.90
2023-05-04T04:42:21.736Z,99.90
2023-05-04T04:44:49.545Z,99.90
2023-05-04T04:47:17.010Z,99.90
2023-05-04T04:49:44.474Z,99.90
2023-05-04T04:52:12.365Z,99.90
2023-05-04T04:54:39.235Z,99.90
2023-05-04T04:57:06.248Z,99.90
2023-05-04T04:59:33.042Z,99.90
2023-05-04T05:02:00.670Z,99.90
2023-05-04T05:04:27.524Z,99.90
2023-05-04T05:06:54.301Z,99.90
2023-05-04T05:09:21.032Z,99.90
2023-05-04T05:11:47.703Z,99.90
2023-05-04T05:14:14.399Z,99.90
2023-05-04T05:16:41.127Z,99.90
2023-05-04T05:19:07.932Z,99.90
2023-05-04T05:21:34.622Z,99.90
2023-05-04T05:24:01.930Z,99.90
2023-05-04T05:26:28.701Z,99.90
2023-05-04T05:28:55.427Z,99.90
2023-05-04T05:31:22.395Z,99.90
2023-05-04T05:33:49.222Z,99.90
2023-05-04T05:36:15.917Z,99.90
2023-05-04T05:38:43.002Z,99.90
2023-05-04T05:41:10.022Z,99.90
2023-05-04T05:43:38.646Z,99.90
2023-05-04T05:46:05.520Z,99.90
2023-05-04T05:48:32.322Z,99.90
2023-05-04T05:50:59.049Z,99.90
2023-05-04T05:53:25.956Z,99.90
2023-05-04T05:55:52.813Z,99.90
2023-05-04T05:58:19.584Z,99.90
2023-05-04T06:00:47.534Z,99.90
2023-05-04T06:03:14.576Z,99.90
2023-05-04T06:05:41.539Z,99.90
2023-05-04T06:08:08.291Z,99.90
2023-05-04T06:10:35.139Z,99.90
2023-05-04T06:13:02.082Z,99.90
2023-05-04T06:15:28.783Z,99.90
2023-05-04T06:17:55.606Z,99.90
2023-05-04T06:20:22.888Z,99.90
2023-05-04T06:22:49.622Z,99.90
2023-05-04T06:25:16.372Z,99.90
2023-05-04T06:27:43.127Z,99.90
2023-05-04T06:30:09.847Z,99.90
2023-05-04T06:32:36.855Z,99.90
2023-05-04T06:35:03.580Z,99.90
2023-05-04T06:37:30.344Z,99.90
2023-05-04T06:39:57.057Z,99.90
2023-05-04T06:42:23.778Z,99.90
2023-05-04T06:44:52.304Z,99.90
2023-05-04T06:47:19.073Z,99.90
2023-05-04T06:49:45.790Z,99.90
2023-05-04T06:52:12.654Z,99.90
2023-05-04T06:54:40.386Z,99.90
2023-05-04T06:57:07.466Z,99.90
2023-05-04T06:59:34.205Z,99.90
2023-05-04T07:02:01.040Z,99.90
2023-05-04T07:04:27.792Z,99.90
2023-05-04T07:06:55.170Z,99.90
2023-05-04T07:09:22.492Z,99.90
2023-05-04T07:11:49.291Z,99.90
2023-05-04T07:14:16.120Z,99.90
2023-05-04T07:16:42.938Z,99.90
2023-05-04T07:19:10.469Z,99.90
2023-05-04T07:21:37.255Z,99.90
2023-05-04T07:24:04.451Z,99.90
2023-05-04T07:26:31.210Z,99.90
2023-05-04T07:28:57.879Z,99.90
2023-05-04T07:31:24.687Z,99.90
2023-05-04T07:33:51.536Z,99.90
2023-05-04T07:36:18.275Z,99.90
2023-05-04T07:38:45.004Z,99.90
2023-05-04T07:41:12.043Z,99.90
2023-05-04T07:43:38.973Z,99.90
2023-05-04T07:46:05.763Z,99.90
2023-05-04T07:48:32.426Z,99.90
2023-05-04T07:50:59.142Z,99.90
2023-05-04T07:53:26.455Z,99.90
2023-05-04T07:55:54.414Z,99.90
2023-05-04T07:58:21.277Z,99.90
2023-05-04T08:00:48.057Z,99.90
2023-05-04T08:03:14.833Z,99.90
2023-05-04T08:05:41.875Z,99.90
2023-05-04T08:08:08.662Z,99.90
2023-05-04T08:10:35.454Z,99.90
2023-05-04T08:13:02.237Z,99.90
2023-05-04T08:15:29.029Z,99.90
2023-05-04T08:17:55.837Z,99.90
2023-05-04T08:20:23.691Z,99.90
2023-05-04T08:22:51.108Z,99.90
2023-05-04T08:25:18.088Z,99.90
2023-05-04T08:27:44.884Z,99.90
2023-05-04T08:30:11.704Z,99.90
2023-05-04T08:32:38.463Z,99.90
2023-05-04T08:35:05.417Z,99.90
2023-05-04T08:37:32.648Z,99.90
2023-05-04T08:39:59.413Z,99.90
2023-05-04T08:42:26.181Z,99.90
2023-05-04T08:44:52.898Z,99.90
2023-05-04T08:47:19.648Z,99.90
2023-05-04T08:49:46.551Z,99.90
2023-05-04T08:52:13.681Z,99.90
2023-05-04T08:54:40.494Z,99.90
2023-05-04T08:57:07.257Z,99.90
2023-05-04T08:59:34.127Z,99.90
2023-05-04T09:02:01.034Z,99.90
2023-05-04T09:04:29.197Z,99.90
2023-05-04T09:06:56.951Z,99.90
2023-05-04T09:09:23.777Z,99.90
2023-05-04T09:11:50.488Z,99.90
2023-05-04T09:14:17.205Z,99.90
2023-05-04T09:16:43.915Z,99.90
2023-05-04T09:19:10.726Z,99.90
2023-05-04T09:21:39.208Z,99.90
2023-05-04T09:24:06.343Z,99.90
2023-05-04T09:26:33.112Z,99.90
2023-05-04T09:28:59.847Z,99.90
2023-05-04T09:31:26.681Z,99.90
2023-05-04T09:33:53.699Z,99.90
2023-05-04T09:36:21.817Z,99.90
2023-05-04T09:38:49.186Z,99.90
2023-05-04T09:41:16.099Z,99.90
2023-05-04T09:43:42.990Z,99.90
2023-05-04T09:46:09.731Z,99.90
2023-05-04T09:48:37.083Z,99.90
2023-05-04T09:51:06.238Z,99.90
2023-05-04T09:53:33.224Z,99.90
2023-05-04T09:56:02.512Z,99.90
2023-05-04T09:58:30.143Z,99.90
2023-05-04T10:00:57.298Z,99.90
2023-05-04T10:03:24.141Z,99.90
2023-05-04T10:05:51.077Z,99.90
2023-05-04T10:08:17.906Z,99.90
2023-05-04T10:10:44.592Z,99.90
2023-05-04T10:13:11.373Z,99.90
2023-05-04T10:15:38.169Z,99.90
2023-05-04T10:18:04.999Z,99.90
2023-05-04T10:20:31.736Z,99.90
2023-05-04T10:22:58.485Z,99.90
2023-05-04T10:25:25.265Z,99.90
2023-05-04T10:27:52.077Z,99.90
2023-05-04T10:30:19.014Z,99.90
2023-05-04T10:32:45.977Z,99.90
2023-05-04T10:35:12.752Z,99.90
2023-05-04T10:37:39.608Z,99.90
2023-05-04T10:40:07.760Z,99.90
2023-05-04T10:42:34.820Z,99.90
2023-05-04T10:45:01.651Z,99.90
2023-05-04T10:47:28.798Z,99.90
2023-05-04T10:49:55.600Z,99.90
2023-05-04T10:52:22.379Z,99.90
2023-05-04T10:54:49.066Z,99.90
2023-05-04T10:57:17.632Z,99.90
2023-05-04T10:59:47.860Z,99.90
2023-05-04T11:02:14.738Z,99.90
2023-05-04T11:04:41.947Z,99.90
2023-05-04T11:07:09.028Z,99.90
2023-05-04T11:09:35.868Z,99.90
2023-05-04T11:12:02.741Z,99.90
2023-05-04T11:14:29.507Z,99.90
2023-05-04T11:16:56.290Z,99.90
2023-05-04T11:19:23.072Z,99.90
2023-05-04T11:21:49.829Z,99.90
2023-05-04T11:24:16.536Z,99.90
2023-05-04T11:26:43.289Z,99.90
2023-05-04T11:29:10.063Z,99.90
2023-05-04T11:31:36.958Z,99.90
2023-05-04T11:34:03.669Z,99.90
2023-05-04T11:36:30.449Z,99.90
2023-05-04T11:38:57.692Z,99.90
2023-05-04T11:41:24.596Z,99.90
2023-05-04T11:43:51.242Z,99.90
2023-05-04T11:46:18.182Z,99.90
2023-05-04T11:48:45.059Z,99.90
2023-05-04T11:51:11.846Z,99.90
2023-05-04T11:53:38.723Z,99.90
2023-05-04T11:56:06.651Z,99.90
2023-05-04T11:58:33.428Z,99.90
2023-05-04T12:01:00.281Z,99.90
2023-05-04T12:03:32.566Z,99.90
2023-05-04T12:06:02.645Z,99.90
2023-05-04T12:08:34.694Z,99.90
2023-05-04T12:11:01.494Z,99.90
2023-05-04T12:13:28.169Z,99.90
2023-05-04T12:15:54.881Z,99.90
2023-05-04T12:18:22.226Z,99.90
2023-05-04T12:20:48.963Z,99.90
2023-05-04T12:23:15.659Z,99.90
2023-05-04T12:25:54.723Z,99.90
2023-05-04T12:28:26.882Z,99.90
2023-05-04T12:30:53.737Z,99.90
2023-05-04T12:33:20.508Z,99.90
2023-05-04T12:35:48.035Z,99.90
2023-05-04T12:38:14.864Z,99.90
2023-05-04T12:40:41.525Z,99.90
2023-05-04T12:43:08.813Z,99.90
2023-05-04T12:45:35.505Z,99.90
2023-05-04T12:48:02.417Z,99.90
2023-05-04T12:50:29.212Z,99.90
2023-05-04T12:52:55.964Z,99.90
2023-05-04T12:55:25.232Z,99.90
2023-05-04T12:57:52.190Z,99.90
2023-05-04T13:00:19.301Z,99.90
2023-05-04T13:02:46.157Z,99.90
2023-05-04T13:05:13.137Z,99.90
2023-05-04T13:07:39.966Z,99.90
2023-05-04T13:10:06.675Z,99.90
2023-05-04T13:12:34.106Z,99.90
2023-05-04T13:15:01.069Z,99.90
2023-05-04T13:17:29.634Z,99.90
2023-05-04T13:19:56.407Z,99.90
2023-05-04T13:22:23.219Z,99.90
2023-05-04T13:24:49.883Z,99.90
2023-05-04T13:27:16.623Z,99.90
2023-05-04T13:29:44.163Z,99.90
2023-05-04T13:32:10.903Z,99.90
2023-05-04T13:34:37.546Z,99.90
2023-05-04T13:37:04.322Z,99.90
2023-05-04T13:39:31.081Z,99.90
2023-05-04T13:41:57.929Z,99.90
2023-05-04T13:44:24.774Z,99.90
2023-05-04T13:46:51.668Z,99.90
2023-05-04T13:49:18.399Z,99.90
2023-05-04T13:51:45.685Z,99.90
2023-05-04T13:54:12.365Z,99.90
2023-05-04T13:56:39.050Z,99.90
2023-05-04T13:59:05.826Z,99.70
2023-05-04T14:01:32.816Z,99.60
2023-05-04T14:03:59.650Z,99.60
2023-05-04T14:06:26.388Z,99.50
2023-05-04T14:08:55.996Z,98.90
2023-05-04T14:11:22.948Z,99.30
2023-05-04T14:13:49.688Z,99.50
2023-05-04T14:16:16.510Z,99.40
2023-05-04T14:18:43.266Z,99.20
2023-05-04T14:21:10.001Z,99.30
2023-05-04T14:23:36.703Z,99.20
2023-05-04T14:26:04.197Z,99.10
2023-05-04T14:28:30.938Z,99.20
2023-05-04T14:30:57.685Z,99.30
2023-05-04T14:33:24.373Z,99.30
2023-05-04T14:35:51.319Z,99.40
2023-05-04T14:38:18.123Z,99.30
2023-05-04T14:40:45.508Z,99.30
2023-05-04T14:43:13.268Z,99.30
2023-05-04T14:45:40.006Z,99.40
2023-05-04T14:48:07.116Z,99.30
2023-05-04T14:50:33.916Z,99.60
2023-05-04T14:53:00.721Z,99.40
2023-05-04T14:55:27.438Z,99.20
2023-05-04T14:57:54.127Z,99.40
2023-05-04T15:00:21.049Z,99.30
2023-05-04T15:02:47.838Z,99.40
2023-05-04T15:05:14.609Z,99.00
2023-05-04T15:07:41.366Z,98.90
2023-05-04T15:10:08.612Z,98.70
2023-05-04T15:12:36.242Z,97.80
2023-05-04T15:15:02.997Z,97.80
2023-05-04T15:17:30.966Z,98.00
2023-05-04T15:19:57.811Z,97.80
2023-05-04T15:22:24.500Z,97.30
2023-05-04T15:24:52.316Z,97.40
2023-05-04T15:27:19.079Z,97.50
2023-05-04T15:29:45.855Z,97.10
2023-05-04T15:32:12.639Z,96.90
2023-05-04T15:34:39.485Z,97.10
2023-05-04T15:37:06.147Z,96.90
2023-05-04T15:39:32.970Z,97.00
2023-05-04T15:41:59.718Z,97.10
2023-05-04T15:44:27.828Z,97.20
2023-05-04T15:46:54.621Z,96.70
2023-05-04T15:49:21.392Z,96.90
2023-05-04T15:51:48.186Z,96.50
2023-05-04T15:54:14.968Z,96.60
2023-05-04T15:56:42.184Z,96.50
2023-05-04T15:59:08.959Z,96.30
2023-05-04T16:01:35.767Z,96.10
2023-05-04T16:04:02.635Z,95.80
2023-05-04T16:06:29.820Z,95.70
2023-05-04T16:08:56.715Z,95.60
2023-05-04T16:11:23.424Z,95.90
2023-05-04T16:13:50.139Z,95.80
2023-05-04T16:16:16.849Z,95.50
2023-05-04T16:18:43.674Z,95.20
2023-05-04T16:21:10.512Z,94.90
2023-05-04T16:23:37.251Z,95.20
2023-05-04T16:26:03.934Z,95.60
2023-05-04T16:28:30.877Z,95.70
2023-05-04T16:30:58.092Z,95.90
2023-05-04T16:33:28.047Z,95.50
2023-05-04T16:35:54.781Z,95.00
2023-05-04T16:38:21.737Z,94.80
2023-05-04T16:40:48.595Z,94.80
2023-05-04T16:43:15.516Z,94.30
2023-05-04T16:45:42.253Z,94.80
2023-05-04T16:48:09.025Z,94.40
2023-05-04T16:50:35.821Z,94.20
2023-05-04T16:53:02.486Z,94.60
2023-05-04T16:55:29.196Z,94.70
2023-05-04T16:57:55.917Z,94.70
2023-05-04T17:00:22.631Z,94.80
2023-05-04T17:02:49.886Z,95.00
2023-05-04T17:05:16.790Z,95.30
2023-05-04T17:07:43.628Z,94.80
2023-05-04T17:10:10.437Z,94.30
2023-05-04T17:12:37.089Z,93.70
2023-05-04T17:15:03.963Z,93.80
2023-05-04T17:17:30.941Z,94.00
2023-05-04T17:19:58.177Z,94.30
2023-05-04T17:22:25.545Z,94.70
2023-05-04T17:24:52.503Z,95.00
2023-05-04T17:27:19.213Z,95.10
2023-05-04T17:29:46.038Z,95.00
2023-05-04T17:32:12.722Z,95.00
2023-05-04T17:34:39.516Z,95.30
2023-05-04T17:37:06.325Z,95.60
2023-05-04T17:39:33.105Z,95.80
2023-05-04T17:41:59.957Z,96.20
2023-05-04T17:44:29.076Z,98.00
2023-05-04T17:46:55.813Z,99.90
2023-05-04T17:49:22.542Z,99.90
2023-05-04T17:51:49.490Z,99.90
2023-05-04T17:54:19.132Z,99.90
2023-05-04T17:56:45.922Z,99.90
2023-05-04T17:59:12.762Z,99.90
2023-05-04T18:01:39.508Z,99.90
2023-05-04T18:04:06.223Z,99.90
2023-05-04T18:06:33.076Z,99.90
2023-05-04T18:08:59.857Z,99.90
2023-05-04T18:11:26.681Z,99.90
2023-05-04T18:13:53.718Z,99.90
2023-05-04T18:16:20.616Z,99.90
2023-05-04T18:18:47.395Z,99.90
2023-05-04T18:21:14.149Z,99.90
2023-05-04T18:23:41.095Z,99.90
2023-05-04T18:26:07.818Z,99.90
2023-05-04T18:28:34.505Z,99.90
2023-05-04T18:31:01.358Z,99.90
2023-05-04T18:33:28.102Z,99.90
2023-05-04T18:35:54.805Z,99.90
2023-05-04T18:38:21.547Z,99.90
2023-05-04T18:40:48.447Z,99.90
2023-05-04T18:43:18.514Z,99.90
2023-05-04T18:45:45.910Z,99.90
2023-05-04T18:48:12.708Z,99.90
2023-05-04T18:50:39.567Z,99.90
2023-05-04T18:53:06.344Z,99.90
2023-05-04T18:55:33.110Z,99.90
2023-05-04T18:57:59.771Z,99.90
2023-05-04T19:00:26.796Z,99.90
2023-05-04T19:02:53.589Z,99.90
2023-05-04T19:05:20.841Z,99.90
2023-05-04T19:07:47.567Z,99.90
2023-05-04T19:10:14.462Z,99.90
2023-05-04T19:12:41.210Z,99.90
2023-05-04T19:15:08.002Z,99.90
2023-05-04T19:17:35.297Z,99.90
2023-05-04T19:20:02.080Z,99.90
2023-05-04T19:22:29.031Z,99.90
2023-05-04T19:24:55.830Z,99.90
2023-05-04T19:27:22.633Z,99.90
2023-05-04T19:29:49.447Z,99.90
2023-05-04T19:32:24.491Z,99.90
2023-05-04T19:34:51.916Z,99.90
2023-05-04T19:37:18.630Z,99.90
2023-05-04T19:39:45.525Z,99.90
2023-05-04T19:42:12.320Z,99.90
2023-05-04T19:44:39.043Z,99.90
2023-05-04T19:47:05.838Z,99.90
2023-05-04T19:49:32.767Z,99.90
2023-05-04T19:51:59.479Z,99.90
2023-05-04T19:54:26.240Z,99.90
2023-05-04T19:56:53.075Z,99.90
2023-05-04T19:59:19.778Z,99.90
2023-05-04T20:01:46.735Z,99.90
2023-05-04T20:04:13.621Z,99.90
2023-05-04T20:06:40.384Z,99.90
2023-05-04T20:09:07.154Z,99.90
2023-05-04T20:11:35.938Z,99.90
2023-05-04T20:14:02.858Z,99.90
2023-05-04T20:16:29.591Z,99.90
2023-05-04T20:18:56.462Z,99.90
2023-05-04T20:21:23.319Z,99.90
2023-05-04T20:23:50.084Z,99.90
2023-05-04T20:26:16.984Z,99.90
2023-05-04T20:28:43.804Z,99.90
2023-05-04T20:31:10.601Z,99.90
2023-05-04T20:33:37.364Z,99.90
2023-05-04T20:36:06.144Z,99.90
2023-05-04T20:38:32.922Z,99.90
2023-05-04T20:40:59.657Z,99.90
2023-05-04T20:43:26.751Z,99.90
2023-05-04T20:45:53.590Z,99.90
2023-05-04T20:48:20.435Z,99.90
2023-05-04T20:50:47.196Z,99.90
2023-05-04T20:53:14.184Z,99.90
2023-05-04T20:55:40.961Z,99.90
2023-05-04T20:58:07.849Z,99.90
2023-05-04T21:00:34.700Z,99.90
2023-05-04T21:03:01.476Z,99.90
2023-05-04T21:05:28.281Z,99.90
2023-05-04T21:07:55.015Z,99.90
2023-05-04T21:10:21.730Z,99.90
2023-05-04T21:12:48.579Z,99.90
2023-05-04T21:15:15.383Z,99.90
2023-05-04T21:17:42.218Z,99.90
2023-05-04T21:20:09.520Z,99.90
2023-05-04T21:22:36.414Z,99.90
2023-05-04T21:25:04.100Z,99.90
2023-05-04T21:27:30.885Z,99.90
2023-05-04T21:29:57.666Z,99.90
2023-05-04T21:32:24.443Z,99.90
2023-05-04T21:34:52.717Z,99.90
2023-05-04T21:37:19.488Z,99.90
2023-05-04T21:39:46.683Z,99.90
2023-05-04T21:42:13.476Z,99.90
2023-05-04T21:44:40.433Z,99.90
2023-05-04T21:47:07.341Z,99.90
2023-05-04T21:49:34.182Z,99.90
2023-05-04T21:52:02.173Z,99.90
2023-05-04T21:54:29.615Z,99.90
2023-05-04T21:56:56.449Z,99.90
2023-05-04T21:59:23.182Z,99.90
2023-05-04T22:01:49.925Z,99.90
2023-05-04T22:04:16.672Z,99.90
2023-05-04T22:06:46.381Z,99.90
2023-05-04T22:09:13.880Z,99.90
2023-05-04T22:11:40.938Z,99.90
2023-05-04T22:14:07.847Z,99.90
2023-05-04T22:16:34.633Z,99.90
2023-05-04T22:19:01.575Z,99.90
2023-05-04T22:21:28.499Z,99.90
2023-05-04T22:23:55.168Z,99.90
2023-05-04T22:26:22.014Z,99.90
2023-05-04T22:28:48.740Z,99.90
2023-05-04T22:31:15.522Z,99.90
2023-05-04T22:33:42.247Z,99.90
2023-05-04T22:36:09.154Z,99.90
2023-05-04T22:38:35.959Z,99.90
2023-05-04T22:41:03.291Z,99.90
2023-05-04T22:43:29.990Z,99.90
2023-05-04T22:45:56.883Z,99.90
2023-05-04T22:48:23.716Z,99.90
2023-05-04T22:50:50.899Z,99.90
2023-05-04T22:53:17.687Z,99.90
2023-05-04T22:55:44.490Z,99.90
2023-05-04T22:58:11.344Z,99.90
2023-05-04T23:00:38.134Z,99.90
2023-05-04T23:03:04.870Z,99.90
2023-05-04T23:05:31.647Z,99.90
2023-05-04T23:07:58.341Z,99.90
2023-05-04T23:10:25.090Z,99.90
2023-05-04T23:12:51.805Z,99.90
2023-05-04T23:15:19.202Z,99.90
2023-05-04T23:17:45.911Z,99.90
2023-05-04T23:20:13.404Z,99.90
2023-05-04T23:22:40.107Z,99.90
2023-05-04T23:25:07.025Z,99.90
2023-05-04T23:27:33.749Z,99.90
2023-05-04T23:30:00.513Z,99.90
2023-05-04T23:32:27.242Z,99.90
2023-05-04T23:34:54.031Z,99.90
2023-05-04T23:37:20.756Z,99.90
2023-05-04T23:39:49.570Z,99.90
2023-05-04T23:42:16.412Z,99.90
2023-05-04T23:44:43.151Z,99.90
2023-05-04T23:47:09.913Z,99.90
2023-05-04T23:49:36.703Z,99.90
2023-05-04T23:52:03.479Z,99.90
2023-05-04T23:54:30.245Z,99.90
2023-05-04T23:56:58.725Z,99.90
2023-05-04T23:59:25.469Z,99.90
